Terminal Aerodrome Forecast
Issued by NWS

Home | Current Version | Previous Version | Text Only | Print | Product List | Glossary On
Versions: 1 2 3 4 5 6 7 8 9 10 11 12 13 14 15 16 17 18 19 20
000
FTUS43 KMKX 221120
TAFUES
TAF
KUES 221120Z 2212/2312 18010KT P6SM -SHRA OVC040 WS020/20035KT
     FM221500 19011KT P6SM -SHRA OVC025 WS020/19035KT
     FM221600 23012KT 6SM -SHRA OVC015
     FM222300 32008KT P6SM OVC060
     FM230300 28005KT P6SM BKN150
     FM230600 VRB03KT P6SM SCT250
     FM231100 VRB03KT 5SM BR SCT250=

USA.gov is the U.S. government's official web portal to all federal, state and local government web resources and services.